Latest Weather Observations for Samuel Hill

IDQ60801

Issued at 8:01 pm EST Wednesday 5 August 2015 (issued every 30 minutes, with the page automatically refreshed every 10 minutes)

About weather observations | Map of weather stations | Latest weather observations for QLD | Other Formats
Station Details ID: 033308 Name: SAMUEL HILL AERO Lat: -22.74 Lon: 150.66 Height: 31.0 m
Data from the previous 72 hours. | See also: Recent months at Samuel Hill
Date/Time
EST
Temp
°C
App
Temp
°C
Dew
Point
Rel
Hum
%
Delta-T
°C
Wind Press
QNH
hPa
Press
MSL
hPa
Rain
since 9 am
mm
Dir
 
Spd
km/h
Gust
km/h
Spd
kts
Gust
kts
05/08:00pm 9.9 9.2 6.8 81 1.5 CALM 0 0 0 0 1017.4 1017.3 0.0
05/07:30pm 10.5 9.5 5.5 71 2.3 CALM 0 0 0 0 1017.3 1017.2 0.0
05/07:00pm 11.4 10.2 6.3 71 2.4 NNW 2 7 1 4 1017.0 1016.9 0.0
05/06:30pm 13.7 11.7 4.3 53 4.3 NW 4 6 2 3 1016.7 1016.6 0.0
05/06:00pm 15.8 13.6 0.8 36 6.5 SW 2 9 1 5 1016.3 1016.2 0.0
05/05:30pm 18.2 14.9 0.4 30 7.8 WSW 7 13 4 7 1015.9 1015.8 0.0
05/05:00pm 19.7 15.0 0.7 28 8.5 WSW 15 20 8 11 1015.6 1015.5 0.0
05/04:30pm 20.4 16.1 0.8 27 8.8 SW 13 19 7 10 1015.3 1015.2 0.0
05/04:00pm 20.8 15.8 1.1 27 9.0 WSW 17 24 9 13 1015.2 1015.1 0.0
05/03:30pm 21.0 16.3 0.8 26 9.1 WSW 15 24 8 13 1015.2 1015.1 0.0
05/03:00pm 20.7 15.5 0.0 25 9.2 WSW 17 28 9 15 1015.1 1015.0 0.0
05/02:30pm 20.5 15.0 0.4 26 9.0 WSW 19 28 10 15 1015.4 1015.3 0.0
05/02:00pm 20.2 14.9 -0.4 25 9.0 WSW 17 28 9 15 1015.7 1015.6 0.0
05/01:30pm 20.0 14.7 1.9 30 8.3 WSW 19 28 10 15 1016.1 1016.0 0.0
05/01:00pm 19.4 14.7 0.9 29 8.3 WSW 15 22 8 12 1016.5 1016.4 0.0
05/12:30pm 19.3 14.7 1.8 31 8.0 WSW 15 22 8 12 1017.2 1017.1 0.0
05/12:00pm 18.8 15.5 2.6 34 7.5 SSW 9 17 5 9 1017.9 1017.9 0.0
05/11:30am 18.2 14.5 2.5 35 7.2 SW 11 19 6 10 1018.5 1018.5 0.0
05/11:00am 17.2 12.2 1.6 35 6.9 SSE 17 24 9 13 1019.0 1019.0 0.0
05/10:30am 16.5 11.4 1.0 35 6.8 S 17 24 9 13 1019.6 1019.6 0.0
05/10:00am 16.0 11.2 2.4 40 6.1 S 17 28 9 15 1020.0 1020.0 0.0
05/09:30am 15.3 9.8 2.1 41 5.9 S 20 30 11 16 1020.3 1020.3 0.0
05/09:00am 14.8 8.9 2.0 42 5.6 S 22 35 12 19 1020.1 1020.1 0.0
05/08:30am 14.2 9.4 2.8 46 5.1 S 17 26 9 14 1019.9 1019.9 0.0
05/08:00am 12.5 9.7 2.9 52 4.2 SW 7 11 4 6 1019.7 1019.7 0.0
05/07:30am 11.4 8.7 3.7 59 3.4 WSW 7 9 4 5 1019.4 1019.4 0.0
05/07:00am 9.6 7.3 4.6 71 2.2 SW 6 7 3 4 1019.2 1019.2 0.0
05/06:30am 8.4 5.7 3.5 71 2.1 SW 7 11 4 6 1018.7 1018.7 0.0
05/06:00am 8.3 6.3 4.3 76 1.7 SW 4 7 2 4 1018.3 1018.3 0.0
05/05:30am 9.8 6.7 3.8 66 2.6 WSW 9 15 5 8 1017.7 1017.6 0.0
05/05:00am 9.1 6.6 3.7 69 2.3 WSW 6 9 3 5 1017.4 1017.3 0.0
05/04:30am 10.8 7.7 3.4 60 3.2 SW 9 13 5 7 1017.3 1017.2 0.0
05/04:00am 8.5 6.6 4.7 77 1.7 SW 4 7 2 4 1017.2 1017.1 0.0
05/03:30am 7.8 6.6 6.4 91 0.6 WSW 2 7 1 4 1017.0 1016.9 0.0
05/03:00am 8.6 7.2 7.1 90 0.7 SSE 4 7 2 4 1016.9 1016.8 0.0
05/02:30am 8.3 7.5 6.6 89 0.8 CALM 0 6 0 3 1016.9 1016.8 0.0
05/02:00am 9.7 9.3 8.3 91 0.7 CALM 0 0 0 0 1017.1 1017.0 0.0
05/01:30am 10.1 9.1 8.7 91 0.7 WNW 4 7 2 4 1017.2 1017.1 0.0
05/01:00am 10.2 10.0 9.0 92 0.6 CALM 0 0 0 0 1017.2 1017.1 0.0
05/12:30am 10.8 10.8 9.7 93 0.6 CALM 0 0 0 0 1017.1 1017.0 0.0
05/12:00am 11.1 11.1 9.9 92 0.6 CALM 0 0 0 0 1017.2 1017.1 0.0
 
Date/Time
EST
Temp
°C
App
Temp
°C
Dew
Point
Rel
Hum
%
Delta-T
°C
Wind Press
QNH
hPa
Press
MSL
hPa
Rain
since 9 am
mm
Dir
 
Spd
km/h
Gust
km/h
Spd
kts
Gust
kts
04/11:30pm 11.4 11.5 10.1 92 0.7 CALM 0 0 0 0 1017.4 1017.3 0.0
04/11:00pm 11.8 12.0 10.4 91 0.7 CALM 0 0 0 0 1017.4 1017.3 0.0
04/10:30pm 12.2 12.0 10.6 90 0.8 WNW 2 6 1 3 1017.4 1017.3 0.0
04/10:00pm 12.8 13.2 11.4 91 0.7 CALM 0 0 0 0 1017.4 1017.3 0.0
04/09:30pm 13.2 12.9 11.4 89 1.0 ESE 4 7 2 4 1017.4 1017.3 0.0
04/09:00pm 14.1 13.4 11.3 83 1.5 SW 6 9 3 5 1017.2 1017.1 0.0
04/08:30pm 15.8 15.2 12.4 80 1.9 S 7 9 4 5 1017.2 1017.1 0.0
04/08:00pm 17.0 16.2 12.9 77 2.3 S 9 11 5 6 1017.0 1016.9 0.0
04/07:30pm 17.3 16.9 13.0 76 2.4 S 7 11 4 6 1016.9 1016.8 0.0
04/07:00pm 17.2 16.3 12.7 75 2.5 SSE 9 9 5 5 1016.5 1016.4 0.0
04/06:30pm 18.1 17.3 12.8 71 3.0 SSE 9 13 5 7 1016.3 1016.2 0.0
04/06:00pm 18.8 17.8 12.3 66 3.6 SSE 9 13 5 7 1016.1 1016.0 0.0
04/05:30pm 19.7 18.2 12.0 61 4.3 SE 11 17 6 9 1016.1 1016.0 0.0
04/05:00pm 20.8 18.9 11.7 56 5.1 SSE 13 19 7 10 1015.8 1015.7 0.0
04/04:30pm 22.1 20.5 11.5 51 5.9 SE 11 17 6 9 1015.4 1015.3 0.0
04/04:00pm 23.6 21.7 10.6 44 7.2 S 11 15 6 8 1015.2 1015.1 0.0
04/03:30pm 23.9 21.9 11.6 46 6.9 S 13 17 7 9 1015.2 1015.1 0.0
04/03:00pm 23.8 21.3 11.2 45 7.1 S 15 22 8 12 1015.3 1015.2 0.0
04/02:30pm 23.8 22.6 12.8 50 6.3 SSE 11 15 6 8 1015.3 1015.2 0.0
04/02:00pm 24.4 23.2 12.7 48 6.7 SE 11 19 6 10 1015.7 1015.6 0.0
04/01:30pm 24.2 23.4 12.8 49 6.6 SW 9 15 5 8 1016.0 1015.9 0.0
04/01:00pm 24.1 23.2 13.6 52 6.1 WNW 11 17 6 9 1016.3 1016.2 0.0
04/12:30pm 23.1 22.6 12.7 52 6.0 WSW 7 15 4 8 1016.8 1016.7 0.0
04/12:00pm 22.4 21.7 13.2 56 5.3 WSW 9 15 5 8 1017.6 1017.5 0.0
04/11:30am 21.8 20.1 12.6 56 5.2 W 13 19 7 10 1018.0 1018.0 0.0
04/11:00am 21.4 20.4 13.3 60 4.6 SW 11 17 6 9 1018.7 1018.7 0.0
04/10:30am 20.7 19.6 13.2 62 4.3 S 11 17 6 9 1019.0 1019.0 0.0
04/10:00am 19.7 18.8 12.7 64 3.9 SSW 9 17 5 9 1019.4 1019.4 0.0
04/09:30am 18.2 17.6 12.4 69 3.2 SSW 7 11 4 6 1019.7 1019.7 0.0
04/09:00am 17.6 16.3 11.2 66 3.5 SSW 9 13 5 7 1019.6 1019.6 0.4
04/08:30am 16.4 15.1 10.0 66 3.4 SSW 7 9 4 5 1019.3 1019.3 0.4
04/08:00am 15.4 14.1 11.4 77 2.1 SW 9 13 5 7 1018.9 1018.9 0.4
04/07:59am 15.3 14.0 11.3 77 2.1 SW 9 13 5 7 1018.9 1018.9 0.4
04/07:30am 14.2 13.5 13.2 94 0.6 SW 9 13 5 7 1018.5 1018.5 0.4
04/07:28am 14.1 13.7 13.1 94 0.6 SW 7 13 4 7 1018.5 1018.5 0.4
04/07:00am 13.3 12.8 12.5 95 0.4 S 7 11 4 6 1018.2 1018.2 0.4
04/06:30am 12.7 13.3 11.9 95 0.4 CALM 0 0 0 0 1017.6 1017.5 0.4
04/06:20am 13.0 13.7 12.2 95 0.4 CALM 0 0 0 0 1017.5 1017.4 0.4
04/06:00am 13.0 13.7 12.2 95 0.4 CALM 0 0 0 0 1017.4 1017.3 0.4
04/05:40am 13.7 14.6 12.9 95 0.4 CALM 0 0 0 0 1017.3 1017.2 0.4
04/05:30am 13.6 14.5 12.8 95 0.4 CALM 0 0 0 0 1017.3 1017.2 0.4
04/05:00am 14.4 15.2 13.8 96 0.3 SE 2 7 1 4 1017.1 1017.0 0.4
04/04:30am 14.4 15.6 13.8 96 0.3 CALM 0 0 0 0 1016.9 1016.8 0.4
04/04:00am 14.5 15.7 13.9 96 0.3 CALM 0 0 0 0 1016.9 1016.8 0.4
04/03:54am 14.4 15.6 13.8 96 0.3 CALM 0 0 0 0 1017.0 1016.9 0.4
04/03:39am 13.8 14.4 13.2 96 0.3 SE 2 7 1 4 1016.9 1016.8 0.4
04/03:30am 13.8 13.5 13.2 96 0.3 SE 7 7 4 4 1016.9 1016.8 0.4
04/03:00am 13.1 13.8 12.2 94 0.5 CALM 0 7 0 4 1016.9 1016.8 0.4
04/02:30am 13.8 14.7 13.0 95 0.4 CALM 0 0 0 0 1016.5 1016.4 0.2
04/02:00am 13.9 14.9 13.1 95 0.4 CALM 0 0 0 0 1016.4 1016.3 0.2
04/01:30am 14.6 15.9 14.0 96 0.3 CALM 0 0 0 0 1016.8 1016.7 0.2
04/01:00am 14.4 15.5 13.6 95 0.4 CALM 0 0 0 0 1017.0 1016.9 0.2
04/12:30am 14.3 15.5 13.7 96 0.3 CALM 0 0 0 0 1017.2 1017.1 0.2
04/12:00am 14.1 15.2 13.5 96 0.3 CALM 0 0 0 0 1017.3 1017.2 0.2
 
Date/Time
EST
Temp
°C
App
Temp
°C
Dew
Point
Rel
Hum
%
Delta-T
°C
Wind Press
QNH
hPa
Press
MSL
hPa
Rain
since 9 am
mm
Dir
 
Spd
km/h
Gust
km/h
Spd
kts
Gust
kts
03/11:30pm 13.8 14.7 13.0 95 0.4 CALM 0 0 0 0 1017.5 1017.4 0.2
03/11:00pm 14.0 15.0 13.2 95 0.4 CALM 0 0 0 0 1017.6 1017.5 0.2
03/10:30pm 14.5 15.3 13.7 95 0.4 WSW 2 9 1 5 1017.8 1017.7 0.2
03/10:00pm 13.5 14.3 12.4 93 0.6 CALM 0 0 0 0 1017.7 1017.6 0.2
03/09:43pm 13.7 14.5 12.4 92 0.7 CALM 0 0 0 0 1017.8 1017.7 0.2
03/09:30pm 13.9 14.7 12.6 92 0.7 CALM 0 0 0 0 1017.8 1017.7 0.2
03/09:22pm 13.9 14.7 12.5 91 0.8 CALM 0 0 0 0 1017.9 1017.9 0.2
03/09:00pm 13.9 14.6 12.1 89 1.0 CALM 0 0 0 0 1018.1 1018.1 0.2
03/08:30pm 15.1 16.1 13.3 89 1.0 CALM 0 0 0 0 1018.3 1018.3 0.2
03/08:00pm 15.9 17.3 14.4 91 0.9 CALM 0 0 0 0 1018.0 1018.0 0.2
03/07:30pm 16.0 17.2 13.8 87 1.2 CALM 0 0 0 0 1017.7 1017.6 0.2
03/07:00pm 17.1 17.9 14.7 86 1.4 NNE 4 6 2 3 1017.5 1017.4 0.2
03/06:30pm 17.8 18.1 15.1 84 1.6 NNE 7 9 4 5 1017.2 1017.1 0.2
03/06:00pm 19.6 20.2 15.9 79 2.2 NNE 7 7 4 4 1016.9 1016.8 0.2
03/05:30pm 20.6 20.4 15.8 74 2.9 NNE 11 15 6 8 1016.7 1016.6 0.2
03/05:00pm 22.0 22.0 17.2 74 2.9 NE 13 20 7 11 1016.7 1016.6 0.2
03/04:30pm 23.0 22.2 16.1 65 4.2 N 15 20 8 11 1016.6 1016.5 0.2
03/04:00pm 23.5 22.6 15.8 62 4.6 NNE 15 22 8 12 1016.7 1016.6 0.2
03/03:30pm 24.4 23.8 16.6 61 4.8 NNE 15 22 8 12 1016.5 1016.4 0.2
03/03:00pm 24.4 23.5 15.9 59 5.2 N 15 20 8 11 1016.5 1016.4 0.2
03/02:30pm 24.9 23.5 14.4 52 6.2 NNE 15 20 8 11 1016.6 1016.5 0.2
03/02:00pm 25.7 25.1 15.7 54 6.1 NE 13 20 7 11 1016.9 1016.8 0.2
03/01:30pm 25.1 24.4 15.4 55 5.9 NNE 13 24 7 13 1017.3 1017.2 0.2
03/01:00pm 25.0 24.3 15.3 55 5.8 N 13 20 7 11 1017.7 1017.6 0.2
03/12:30pm 24.1 24.2 15.6 59 5.1 NW 9 15 5 8 1018.2 1018.2 0.2
03/12:00pm 23.6 23.2 14.0 55 5.6 N 9 13 5 7 1018.5 1018.5 0.2
03/11:30am 24.4 23.9 14.8 55 5.7 N 11 17 6 9 1019.1 1019.1 0.2
03/11:00am 23.4 23.0 15.2 60 4.9 N 11 19 6 10 1019.6 1019.6 0.0
03/10:30am 22.7 22.7 15.3 63 4.4 NNE 9 19 5 10 1020.0 1020.0 0.0
03/10:00am 22.4 23.6 17.3 73 3.1 NE 7 15 4 8 1020.5 1020.5 0.0
03/09:30am 20.8 22.4 17.8 83 1.9 E 6 7 3 4 1020.9 1020.9 0.0
03/09:00am 18.4 19.4 16.4 88 1.2 E 6 6 3 3 1020.8 1020.8 0.2
03/08:30am 16.3 18.0 15.2 93 0.6 CALM 0 0 0 0 1020.4 1020.4 0.2
03/08:26am 16.1 17.7 15.0 93 0.6 CALM 0 0 0 0 1020.4 1020.4 0.2
03/08:11am 14.9 16.2 14.1 95 0.5 CALM 0 0 0 0 1020.1 1020.1 0.2
03/08:00am 13.7 14.6 12.9 95 0.4 CALM 0 0 0 0 1020.0 1020.0 0.2
03/07:30am 11.6 11.9 11.0 96 0.3 CALM 0 0 0 0 1020.0 1020.0 0.2
03/07:00am 10.5 10.5 9.9 96 0.3 CALM 0 0 0 0 1019.9 1019.9 0.2
03/06:30am 10.3 10.3 9.7 96 0.3 CALM 0 0 0 0 1019.8 1019.8 0.2
03/06:00am 10.5 10.5 9.9 96 0.3 CALM 0 0 0 0 1019.7 1019.7 0.2
03/05:30am 10.7 10.7 9.9 95 0.4 CALM 0 0 0 0 1019.3 1019.3 0.2
03/05:00am 10.7 10.7 9.9 95 0.4 CALM 0 0 0 0 1019.3 1019.3 0.2
03/04:30am 10.8 10.9 10.0 95 0.4 CALM 0 0 0 0 1019.2 1019.2 0.2
03/04:00am 10.9 11.0 10.1 95 0.4 CALM 0 0 0 0 1019.3 1019.3 0.2
03/03:30am 11.2 11.4 10.4 95 0.4 CALM 0 0 0 0 1019.4 1019.4 0.2
03/03:00am 11.4 11.6 10.6 95 0.4 CALM 0 0 0 0 1019.4 1019.4 0.2
03/02:30am 11.4 11.6 10.6 95 0.4 CALM 0 0 0 0 1019.4 1019.4 0.2
03/02:00am 11.2 11.3 10.3 94 0.5 CALM 0 0 0 0 1019.6 1019.6 0.2
03/01:30am 11.5 11.7 10.7 95 0.4 CALM 0 0 0 0 1019.8 1019.8 0.2
03/01:00am 11.5 11.7 10.6 94 0.5 CALM 0 0 0 0 1020.1 1020.1 0.2
03/12:30am 11.8 12.1 10.9 94 0.5 CALM 0 0 0 0 1020.4 1020.4 0.2
03/12:00am 11.9 12.2 11.0 94 0.5 CALM 0 0 0 0 1020.5 1020.5 0.2
 
Date/Time
EST
Temp
°C
App
Temp
°C
Dew
Point
Rel
Hum
%
Delta-T
°C
Wind Press
QNH
hPa
Press
MSL
hPa
Rain
since 9 am
mm
Dir
 
Spd
km/h
Gust
km/h
Spd
kts
Gust
kts
02/11:30pm 11.7 11.9 10.6 93 0.6 CALM 0 0 0 0 1020.7 1020.7 0.2
02/11:08pm 11.8 12.0 10.5 92 0.7 CALM 0 0 0 0 1020.8 1020.8 0.2
02/11:01pm 11.9 12.1 10.6 92 0.7 CALM 0 0 0 0 1020.8 1020.8 0.2
02/11:00pm 11.9 12.1 10.6 92 0.7 CALM 0 0 0 0 1020.8 1020.8 0.2
02/10:30pm 12.0 12.2 10.7 92 0.7 CALM 0 0 0 0 1021.0 1021.0 0.2
02/10:00pm 12.6 13.0 11.3 92 0.7 CALM 0 0 0 0 1021.1 1021.1 0.2
02/09:30pm 12.8 13.2 11.4 91 0.7 CALM 0 0 0 0 1021.0 1021.0 0.2
02/09:00pm 13.4 14.0 12.0 91 0.7 CALM 0 0 0 0 1021.0 1021.0 0.2
02/08:30pm 14.3 15.2 13.0 92 0.7 CALM 0 0 0 0 1020.9 1020.9 0.2

Other Formats:

Comma delimited format used in spreadsheet applications
http://www.bom.gov.au/fwo/IDQ60801/IDQ60801.94370.axf

JavaScript Object Notation format (JSON) in row-major order
http://www.bom.gov.au/fwo/IDQ60801/IDQ60801.94370.json